createdAt,value
2022-12-23T00:00:42.094Z,100.00
2022-12-23T00:03:09.251Z,100.00
2022-12-23T00:05:38.256Z,100.00
2022-12-23T00:08:06.299Z,100.00
2022-12-23T00:10:33.455Z,100.00
2022-12-23T00:13:18.894Z,100.00
2022-12-23T00:15:45.633Z,100.00
2022-12-23T00:18:12.463Z,100.00
2022-12-23T00:20:39.234Z,100.00
2022-12-23T00:23:06.727Z,100.00
2022-12-23T00:25:41.175Z,100.00
2022-12-23T00:28:16.000Z,100.00
2022-12-23T00:31:04.572Z,100.00
2022-12-23T00:33:44.805Z,100.00
2022-12-23T00:36:15.420Z,100.00
2022-12-23T00:39:00.813Z,100.00
2022-12-23T00:41:46.171Z,100.00
2022-12-23T00:44:13.493Z,100.00
2022-12-23T00:46:40.242Z,100.00
2022-12-23T00:49:26.141Z,100.00
2022-12-23T00:51:53.272Z,100.00
2022-12-23T00:54:20.500Z,100.00
2022-12-23T00:56:47.259Z,100.00
2022-12-23T00:59:19.159Z,100.00
2022-12-23T01:02:08.225Z,100.00
2022-12-23T01:05:00.243Z,100.00
2022-12-23T01:07:27.328Z,100.00
2022-12-23T01:09:54.137Z,100.00
2022-12-23T01:12:21.259Z,100.00
2022-12-23T01:14:48.560Z,100.00
2022-12-23T01:17:15.351Z,100.00
2022-12-23T01:19:42.303Z,100.00
2022-12-23T01:22:09.204Z,100.00
2022-12-23T01:24:35.959Z,100.00
2022-12-23T01:27:02.777Z,100.00
2022-12-23T01:29:30.013Z,100.00
2022-12-23T01:31:56.883Z,100.00
2022-12-23T01:34:23.651Z,100.00
2022-12-23T01:36:50.560Z,100.00
2022-12-23T01:39:17.515Z,100.00
2022-12-23T01:42:02.845Z,100.00
2022-12-23T01:44:55.308Z,100.00
2022-12-23T01:47:25.132Z,100.00
2022-12-23T01:50:19.936Z,100.00
2022-12-23T01:53:07.353Z,100.00
2022-12-23T01:55:54.579Z,100.00
2022-12-23T01:58:25.959Z,100.00
2022-12-23T02:01:26.043Z,100.00
2022-12-23T02:03:59.256Z,100.00
2022-12-23T02:06:48.025Z,100.00
2022-12-23T02:09:40.331Z,100.00
2022-12-23T02:12:22.347Z,100.00
2022-12-23T02:15:13.882Z,100.00
2022-12-23T02:18:04.883Z,100.00
2022-12-23T02:21:19.963Z,100.00
2022-12-23T02:24:04.978Z,100.00
2022-12-23T02:27:09.748Z,100.00
2022-12-23T02:29:42.603Z,100.00
2022-12-23T02:32:12.258Z,100.00
2022-12-23T02:34:52.115Z,100.00
2022-12-23T02:37:44.224Z,100.00
2022-12-23T02:40:30.449Z,100.00
2022-12-23T02:43:20.550Z,100.00
2022-12-23T02:46:17.296Z,100.00
2022-12-23T02:48:57.005Z,100.00
2022-12-23T02:51:31.034Z,100.00
2022-12-23T02:54:03.135Z,100.00
2022-12-23T02:56:33.429Z,100.00
2022-12-23T02:59:05.736Z,100.00
2022-12-23T03:01:33.974Z,100.00
2022-12-23T03:04:01.040Z,100.00
2022-12-23T03:06:36.598Z,100.00
2022-12-23T03:09:03.470Z,100.00
2022-12-23T03:12:11.949Z,100.00
2022-12-23T03:15:05.255Z,100.00
2022-12-23T03:17:57.722Z,100.00
2022-12-23T03:20:33.137Z,100.00
2022-12-23T03:23:27.597Z,100.00
2022-12-23T03:26:02.128Z,100.00
2022-12-23T03:28:36.957Z,100.00
2022-12-23T03:31:09.892Z,100.00
2022-12-23T03:33:42.629Z,100.00
2022-12-23T03:36:24.562Z,100.00
2022-12-23T03:38:55.197Z,100.00
2022-12-23T03:41:33.279Z,100.00
2022-12-23T03:44:29.417Z,100.00
2022-12-23T03:47:15.309Z,100.00
2022-12-23T03:50:00.675Z,100.00
2022-12-23T03:52:46.104Z,100.00
2022-12-23T03:55:20.131Z,100.00
2022-12-23T03:58:00.855Z,100.00
2022-12-23T04:00:34.252Z,100.00
2022-12-23T04:03:10.512Z,100.00
2022-12-23T04:05:40.730Z,100.00
2022-12-23T04:08:25.661Z,100.00
2022-12-23T04:10:53.478Z,100.00
2022-12-23T04:13:20.302Z,100.00
2022-12-23T04:15:47.247Z,100.00
2022-12-23T04:18:14.462Z,100.00
2022-12-23T04:20:41.080Z,100.00
2022-12-23T04:23:07.871Z,100.00
2022-12-23T04:25:34.741Z,100.00
2022-12-23T04:28:01.442Z,100.00
2022-12-23T04:30:34.004Z,100.00
2022-12-23T04:33:02.555Z,100.00
2022-12-23T04:35:29.647Z,100.00
2022-12-23T04:37:56.673Z,100.00
2022-12-23T04:40:23.544Z,100.00
2022-12-23T04:42:50.215Z,100.00
2022-12-23T04:45:16.976Z,100.00
2022-12-23T04:47:43.780Z,100.00
2022-12-23T04:50:14.795Z,100.00
2022-12-23T04:52:42.315Z,100.00
2022-12-23T04:55:09.677Z,100.00
2022-12-23T04:57:36.410Z,100.00
2022-12-23T05:00:04.912Z,100.00
2022-12-23T05:02:31.762Z,100.00
2022-12-23T05:04:58.577Z,100.00
2022-12-23T05:07:25.474Z,100.00
2022-12-23T05:09:52.583Z,100.00
2022-12-23T05:12:19.381Z,100.00
2022-12-23T05:14:46.325Z,100.00
2022-12-23T05:17:13.132Z,100.00
2022-12-23T05:19:39.839Z,100.00
2022-12-23T05:22:06.593Z,100.00
2022-12-23T05:24:33.512Z,100.00
2022-12-23T05:27:00.720Z,100.00
2022-12-23T05:29:29.217Z,100.00
2022-12-23T05:31:56.138Z,100.00
2022-12-23T05:34:22.925Z,100.00
2022-12-23T05:36:49.840Z,100.00
2022-12-23T05:39:17.008Z,100.00
2022-12-23T05:41:43.814Z,100.00
2022-12-23T05:44:10.555Z,100.00
2022-12-23T05:46:37.509Z,100.00
2022-12-23T05:49:04.259Z,100.00
2022-12-23T05:51:31.020Z,100.00
2022-12-23T05:53:57.797Z,100.00
2022-12-23T05:56:24.702Z,100.00
2022-12-23T05:58:51.451Z,100.00
2022-12-23T06:01:18.700Z,100.00
2022-12-23T06:03:45.416Z,100.00
2022-12-23T06:06:13.175Z,100.00
2022-12-23T06:08:40.031Z,100.00
2022-12-23T06:11:07.077Z,100.00
2022-12-23T06:13:33.863Z,100.00
2022-12-23T06:16:00.730Z,100.00
2022-12-23T06:18:27.493Z,100.00
2022-12-23T06:20:54.243Z,100.00
2022-12-23T06:23:21.014Z,100.00
2022-12-23T06:25:47.712Z,100.00
2022-12-23T06:28:14.432Z,100.00
2022-12-23T06:30:41.192Z,100.00
2022-12-23T06:33:07.863Z,100.00
2022-12-23T06:35:34.580Z,100.00
2022-12-23T06:38:01.269Z,100.00
2022-12-23T06:40:29.322Z,100.00
2022-12-23T06:42:56.107Z,100.00
2022-12-23T06:45:22.994Z,100.00
2022-12-23T06:47:49.856Z,100.00
2022-12-23T06:50:16.591Z,100.00
2022-12-23T06:52:43.682Z,100.00
2022-12-23T06:55:10.354Z,100.00
2022-12-23T06:57:37.416Z,99.41
2022-12-23T07:00:08.806Z,100.00
2022-12-23T07:02:35.680Z,100.00
2022-12-23T07:05:02.469Z,100.00
2022-12-23T07:07:29.358Z,100.00
2022-12-23T07:09:56.116Z,100.00
2022-12-23T07:12:22.869Z,100.00
2022-12-23T07:14:49.671Z,100.00
2022-12-23T07:17:16.617Z,100.00
2022-12-23T07:19:43.416Z,100.00
2022-12-23T07:22:13.050Z,100.00
2022-12-23T07:24:39.727Z,100.00
2022-12-23T07:27:06.498Z,100.00
2022-12-23T07:29:33.321Z,100.00
2022-12-23T07:32:02.125Z,100.00
2022-12-23T07:34:28.784Z,100.00
2022-12-23T07:36:56.124Z,100.00
2022-12-23T07:39:22.934Z,100.00
2022-12-23T07:41:55.497Z,100.00
2022-12-23T07:44:30.663Z,100.00
2022-12-23T07:46:57.365Z,100.00
2022-12-23T07:49:23.957Z,100.00
2022-12-23T07:51:50.723Z,100.00
2022-12-23T07:54:17.480Z,100.00
2022-12-23T07:56:44.206Z,100.00
2022-12-23T07:59:10.953Z,100.00
2022-12-23T08:01:37.895Z,100.00
2022-12-23T08:04:04.735Z,100.00
2022-12-23T08:06:32.496Z,100.00
2022-12-23T08:08:59.141Z,100.00
2022-12-23T08:11:25.819Z,100.00
2022-12-23T08:13:53.132Z,100.00
2022-12-23T08:16:19.951Z,100.00
2022-12-23T08:18:46.782Z,100.00
2022-12-23T08:21:15.960Z,100.00
2022-12-23T08:23:43.738Z,100.00
2022-12-23T08:26:16.886Z,100.00
2022-12-23T08:28:44.719Z,100.00
2022-12-23T08:31:26.529Z,100.00
2022-12-23T08:33:56.010Z,100.00
2022-12-23T08:36:25.820Z,99.14
2022-12-23T08:38:54.798Z,97.71
2022-12-23T08:41:35.890Z,99.19
2022-12-23T08:44:03.487Z,99.07
2022-12-23T08:46:30.395Z,96.84
2022-12-23T08:48:57.295Z,94.87
2022-12-23T08:51:25.639Z,91.34
2022-12-23T08:54:01.054Z,85.97
2022-12-23T08:56:32.444Z,84.67
2022-12-23T08:58:59.149Z,85.00
2022-12-23T09:01:30.119Z,84.84
2022-12-23T09:03:57.313Z,85.10
2022-12-23T09:06:29.456Z,82.21
2022-12-23T09:08:58.128Z,80.08
2022-12-23T09:11:28.357Z,79.44
2022-12-23T09:13:56.092Z,80.57
2022-12-23T09:16:23.641Z,79.72
2022-12-23T09:18:50.685Z,78.39
2022-12-23T09:21:22.411Z,78.20
2022-12-23T09:23:49.492Z,79.26
2022-12-23T09:26:25.219Z,80.21
2022-12-23T09:28:52.578Z,79.68
2022-12-23T09:31:21.877Z,79.61
2022-12-23T09:33:51.000Z,77.53
2022-12-23T09:36:18.193Z,78.41
2022-12-23T09:38:45.364Z,76.92
2022-12-23T09:41:40.128Z,76.95
2022-12-23T09:44:12.886Z,77.51
2022-12-23T09:46:48.334Z,76.13
2022-12-23T09:49:17.613Z,74.01
2022-12-23T09:51:45.813Z,73.72
2022-12-23T09:54:22.911Z,73.34
2022-12-23T09:57:18.813Z,74.13
2022-12-23T10:00:12.503Z,71.61
2022-12-23T10:03:16.425Z,72.24
2022-12-23T10:06:00.702Z,70.86
2022-12-23T10:08:27.494Z,69.64
2022-12-23T10:11:07.884Z,68.27
2022-12-23T10:13:37.561Z,68.93
2022-12-23T10:16:09.729Z,67.74
2022-12-23T10:19:00.157Z,68.69
2022-12-23T10:21:46.935Z,68.38
2022-12-23T10:24:23.462Z,69.07
2022-12-23T10:26:55.111Z,68.40
2022-12-23T10:29:27.787Z,67.17
2022-12-23T10:32:03.781Z,65.53
2022-12-23T10:34:57.010Z,65.27
2022-12-23T10:37:38.823Z,64.91
2022-12-23T10:40:22.817Z,64.23
2022-12-23T10:42:58.533Z,64.69
2022-12-23T10:46:03.934Z,63.95
2022-12-23T10:48:56.378Z,63.24
2022-12-23T10:51:34.171Z,63.28
2022-12-23T10:54:15.037Z,64.72
2022-12-23T10:56:42.642Z,63.72
2022-12-23T10:59:14.310Z,63.52
2022-12-23T11:01:44.006Z,64.12
2022-12-23T11:04:17.297Z,63.51
2022-12-23T11:06:46.900Z,64.03
2022-12-23T11:09:19.317Z,63.45
2022-12-23T11:12:01.379Z,63.30
2022-12-23T11:14:32.397Z,64.09
2022-12-23T11:16:59.403Z,63.01
2022-12-23T11:19:29.344Z,60.20
2022-12-23T11:22:01.031Z,61.29
2022-12-23T11:24:38.036Z,60.31
2022-12-23T11:27:12.603Z,59.60
2022-12-23T11:29:47.262Z,60.49
2022-12-23T11:32:24.610Z,60.94
2022-12-23T11:34:52.228Z,59.63
2022-12-23T11:37:36.201Z,58.95
2022-12-23T11:40:15.392Z,59.06
2022-12-23T11:42:42.960Z,59.99
2022-12-23T11:45:09.943Z,59.42
2022-12-23T11:47:41.530Z,59.54
2022-12-23T11:50:20.737Z,59.67
2022-12-23T11:52:52.600Z,60.27
2022-12-23T11:55:29.850Z,60.96
2022-12-23T11:57:57.103Z,60.56
2022-12-23T12:00:34.789Z,61.22
2022-12-23T12:03:04.675Z,61.60
2022-12-23T12:05:40.968Z,61.10
2022-12-23T12:08:13.930Z,61.35
2022-12-23T12:10:42.329Z,61.08
2022-12-23T12:13:24.181Z,59.39
2022-12-23T12:16:12.691Z,58.77
2022-12-23T12:18:42.918Z,59.38
2022-12-23T12:21:18.987Z,59.93
2022-12-23T12:24:17.344Z,59.71
2022-12-23T12:26:51.421Z,59.30
2022-12-23T12:29:28.941Z,58.45
2022-12-23T12:31:58.796Z,58.44
2022-12-23T12:34:58.201Z,58.51
2022-12-23T12:37:48.339Z,59.00
2022-12-23T12:40:25.061Z,58.80
2022-12-23T12:43:34.967Z,58.03
2022-12-23T12:46:27.147Z,57.23
2022-12-23T12:49:40.780Z,56.55
2022-12-23T12:52:19.506Z,57.21
2022-12-23T12:55:01.971Z,57.51
2022-12-23T12:57:29.754Z,58.30
2022-12-23T13:00:05.510Z,57.84
2022-12-23T13:02:53.989Z,57.97
2022-12-23T13:05:36.153Z,58.26
2022-12-23T13:08:51.171Z,58.93
2022-12-23T13:11:45.316Z,57.60
2022-12-23T13:14:43.895Z,58.85
2022-12-23T13:17:28.843Z,59.23
2022-12-23T13:20:29.216Z,60.74
2022-12-23T13:23:27.039Z,61.71
2022-12-23T13:26:00.642Z,61.99
2022-12-23T13:28:51.393Z,62.59
2022-12-23T13:31:42.378Z,62.30
2022-12-23T13:34:45.580Z,61.33
2022-12-23T13:37:39.537Z,60.91
2022-12-23T13:40:34.155Z,61.88
2022-12-23T13:43:22.266Z,62.23
2022-12-23T13:45:51.938Z,61.87
2022-12-23T13:48:27.446Z,61.29
2022-12-23T13:51:07.037Z,61.47
2022-12-23T13:53:58.042Z,62.02
2022-12-23T13:57:10.623Z,61.85
2022-12-23T14:00:20.313Z,61.23
2022-12-23T14:03:01.953Z,60.80
2022-12-23T14:05:33.370Z,61.42
2022-12-23T14:08:05.878Z,61.98
2022-12-23T14:10:33.194Z,62.59
2022-12-23T14:13:22.986Z,62.99
2022-12-23T14:16:12.920Z,64.02
2022-12-23T14:18:45.723Z,64.51
2022-12-23T14:21:21.552Z,64.74
2022-12-23T14:24:13.583Z,64.32
2022-12-23T14:27:03.110Z,64.71
2022-12-23T14:29:38.851Z,64.56
2022-12-23T14:32:34.510Z,67.04
2022-12-23T14:35:27.227Z,67.62
2022-12-23T14:38:15.119Z,69.14
2022-12-23T14:40:41.900Z,71.05
2022-12-23T14:43:25.532Z,72.16
2022-12-23T14:46:05.212Z,73.75
2022-12-23T14:48:47.898Z,75.19
2022-12-23T14:51:14.631Z,76.66
2022-12-23T14:53:57.081Z,77.51
2022-12-23T14:56:32.357Z,78.66
2022-12-23T14:59:26.934Z,78.62
2022-12-23T15:02:22.663Z,79.95
2022-12-23T15:04:58.054Z,82.20
2022-12-23T15:07:33.130Z,83.26
2022-12-23T15:10:02.370Z,84.95
2022-12-23T15:12:37.160Z,86.05
2022-12-23T15:15:07.048Z,86.28
2022-12-23T15:17:36.569Z,87.16
2022-12-23T15:20:20.029Z,87.52
2022-12-23T15:22:48.420Z,88.28
2022-12-23T15:25:24.113Z,89.86
2022-12-23T15:27:56.004Z,91.25
2022-12-23T15:30:30.508Z,92.41
2022-12-23T15:33:21.863Z,92.36
2022-12-23T15:35:53.688Z,93.02
2022-12-23T15:38:23.881Z,99.24
2022-12-23T15:40:59.935Z,95.44
2022-12-23T15:43:27.368Z,95.63
2022-12-23T15:46:09.784Z,96.39
2022-12-23T15:48:38.256Z,96.52
2022-12-23T15:54:32.440Z,100.00
2022-12-23T15:57:05.802Z,100.00
2022-12-23T15:59:39.147Z,99.79
2022-12-23T16:05:37.709Z,99.80
2022-12-23T16:08:16.504Z,100.00
2022-12-23T16:11:16.043Z,100.00
2022-12-23T16:13:58.480Z,100.00
2022-12-23T16:16:43.478Z,100.00
2022-12-23T16:22:22.619Z,100.00
2022-12-23T16:25:09.384Z,100.00
2022-12-23T16:27:47.837Z,100.00
2022-12-23T16:30:24.777Z,100.00
2022-12-23T16:33:04.613Z,100.00
2022-12-23T16:35:42.044Z,100.00
2022-12-23T16:38:26.111Z,100.00
2022-12-23T16:40:55.840Z,100.00
2022-12-23T16:43:24.542Z,100.00
2022-12-23T16:45:55.356Z,100.00
2022-12-23T16:51:22.114Z,100.00
2022-12-23T16:53:50.258Z,100.00
2022-12-23T16:56:20.258Z,100.00
2022-12-23T16:58:50.736Z,100.00
2022-12-23T17:01:27.850Z,100.00
2022-12-23T17:03:56.052Z,100.00
2022-12-23T17:06:23.656Z,100.00
2022-12-23T17:08:51.236Z,100.00
2022-12-23T17:11:23.456Z,100.00
2022-12-23T17:13:50.636Z,100.00
2022-12-23T17:16:25.863Z,100.00
2022-12-23T17:18:53.507Z,100.00
2022-12-23T17:21:26.877Z,100.00
2022-12-23T17:23:57.164Z,100.00
2022-12-23T17:26:24.156Z,100.00
2022-12-23T17:28:54.488Z,100.00
2022-12-23T17:31:27.016Z,100.00
2022-12-23T17:33:54.641Z,100.00
2022-12-23T17:36:28.015Z,100.00
2022-12-23T17:38:55.006Z,100.00
2022-12-23T17:41:32.230Z,100.00
2022-12-23T17:44:00.091Z,100.00
2022-12-23T17:46:41.085Z,100.00
2022-12-23T17:49:08.933Z,100.00
2022-12-23T17:51:36.139Z,100.00
2022-12-23T17:54:04.757Z,100.00
2022-12-23T17:56:31.655Z,100.00
2022-12-23T17:58:58.918Z,100.00
2022-12-23T18:01:28.414Z,100.00
2022-12-23T18:03:56.645Z,100.00
2022-12-23T18:06:25.321Z,100.00
2022-12-23T18:08:52.478Z,100.00
2022-12-23T18:11:27.024Z,100.00
2022-12-23T18:14:27.259Z,100.00
2022-12-23T18:17:06.362Z,100.00
2022-12-23T18:19:33.408Z,100.00
2022-12-23T18:22:00.209Z,100.00
2022-12-23T18:24:28.488Z,100.00
2022-12-23T18:26:55.387Z,100.00
2022-12-23T18:29:22.223Z,100.00
2022-12-23T18:31:51.933Z,100.00
2022-12-23T18:34:20.033Z,100.00
2022-12-23T18:36:48.501Z,100.00
2022-12-23T18:39:15.692Z,100.00
2022-12-23T18:41:43.023Z,100.00
2022-12-23T18:44:21.170Z,100.00
2022-12-23T18:46:49.300Z,100.00
2022-12-23T18:49:16.216Z,100.00
2022-12-23T18:51:43.378Z,100.00
2022-12-23T18:54:15.125Z,100.00
2022-12-23T18:56:42.164Z,100.00
2022-12-23T18:59:21.423Z,100.00
2022-12-23T19:01:54.605Z,100.00
2022-12-23T19:04:21.558Z,100.00
2022-12-23T19:06:51.041Z,100.00
2022-12-23T19:09:23.353Z,100.00
2022-12-23T19:11:52.250Z,100.00
2022-12-23T19:14:19.064Z,100.00
2022-12-23T19:16:51.273Z,100.00
2022-12-23T19:19:19.516Z,100.00
2022-12-23T19:21:46.771Z,100.00
2022-12-23T19:24:14.131Z,100.00
2022-12-23T19:26:40.928Z,100.00
2022-12-23T19:29:08.840Z,100.00
2022-12-23T19:31:35.652Z,100.00
2022-12-23T19:34:02.464Z,100.00
2022-12-23T19:36:29.332Z,100.00
2022-12-23T19:38:57.800Z,100.00
2022-12-23T19:41:25.907Z,100.00
2022-12-23T19:43:52.910Z,100.00
2022-12-23T19:46:19.805Z,100.00
2022-12-23T19:48:52.581Z,100.00
2022-12-23T19:51:19.731Z,100.00
2022-12-23T19:53:51.026Z,100.00
2022-12-23T19:56:22.846Z,100.00
2022-12-23T19:58:50.426Z,100.00
2022-12-23T20:01:24.438Z,100.00
2022-12-23T20:03:53.029Z,100.00
2022-12-23T20:06:27.050Z,100.00
2022-12-23T20:08:59.965Z,100.00
2022-12-23T20:11:30.931Z,100.00
2022-12-23T20:13:58.545Z,100.00
2022-12-23T20:16:26.038Z,100.00
2022-12-23T20:18:54.890Z,100.00
2022-12-23T20:21:21.747Z,100.00
2022-12-23T20:23:49.230Z,100.00
2022-12-23T20:26:18.608Z,100.00
2022-12-23T20:28:45.853Z,100.00
2022-12-23T20:31:19.396Z,100.00
2022-12-23T20:33:47.241Z,100.00
2022-12-23T20:36:16.240Z,100.00
2022-12-23T20:38:45.662Z,100.00
2022-12-23T20:41:19.866Z,100.00
2022-12-23T20:44:02.741Z,100.00
2022-12-23T20:46:34.196Z,100.00
2022-12-23T20:49:03.586Z,100.00
2022-12-23T20:51:30.560Z,100.00
2022-12-23T20:54:01.925Z,100.00
2022-12-23T20:56:30.508Z,100.00
2022-12-23T20:58:59.257Z,100.00
2022-12-23T21:01:31.057Z,100.00
2022-12-23T21:04:00.416Z,100.00
2022-12-23T21:06:29.261Z,100.00
2022-12-23T21:08:58.364Z,100.00
2022-12-23T21:11:28.662Z,100.00
2022-12-23T21:13:57.762Z,100.00
2022-12-23T21:16:26.819Z,100.00
2022-12-23T21:18:53.748Z,100.00
2022-12-23T21:21:23.622Z,100.00
2022-12-23T21:23:50.813Z,100.00
2022-12-23T21:26:19.968Z,100.00
2022-12-23T21:28:48.805Z,100.00
2022-12-23T21:31:20.389Z,100.00
2022-12-23T21:33:48.331Z,100.00
2022-12-23T21:36:20.999Z,100.00
2022-12-23T21:38:48.751Z,100.00
2022-12-23T21:41:18.774Z,100.00
2022-12-23T21:43:48.904Z,100.00
2022-12-23T21:46:17.727Z,100.00
2022-12-23T21:48:45.126Z,100.00
2022-12-23T21:51:21.871Z,100.00
2022-12-23T21:53:50.943Z,100.00
2022-12-23T21:56:19.933Z,100.00
2022-12-23T21:58:47.487Z,100.00
2022-12-23T22:01:19.621Z,100.00
2022-12-23T22:03:48.662Z,100.00
2022-12-23T22:06:18.151Z,100.00
2022-12-23T22:08:45.327Z,100.00
2022-12-23T22:11:24.918Z,100.00
2022-12-23T22:13:51.982Z,100.00
2022-12-23T22:16:21.649Z,100.00
2022-12-23T22:18:50.069Z,100.00
2022-12-23T22:21:19.767Z,100.00
2022-12-23T22:23:47.636Z,100.00
2022-12-23T22:26:24.067Z,100.00
2022-12-23T22:28:52.301Z,100.00
2022-12-23T22:31:31.296Z,100.00
2022-12-23T22:33:58.907Z,100.00
2022-12-23T22:36:26.358Z,100.00
2022-12-23T22:38:55.505Z,100.00
2022-12-23T22:41:23.200Z,100.00
2022-12-23T22:43:50.138Z,100.00
2022-12-23T22:46:18.506Z,100.00
2022-12-23T22:48:46.109Z,100.00
2022-12-23T22:51:24.859Z,100.00
2022-12-23T22:53:51.745Z,100.00
2022-12-23T22:56:20.801Z,100.00
2022-12-23T22:58:47.580Z,100.00
2022-12-23T23:01:35.333Z,100.00
2022-12-23T23:04:03.799Z,100.00
2022-12-23T23:06:38.011Z,100.00
2022-12-23T23:09:12.857Z,100.00
2022-12-23T23:11:40.226Z,100.00
2022-12-23T23:14:07.520Z,100.00
2022-12-23T23:16:34.554Z,100.00
2022-12-23T23:19:03.594Z,100.00
2022-12-23T23:21:30.343Z,100.00
2022-12-23T23:23:57.420Z,100.00
2022-12-23T23:26:27.633Z,100.00
2022-12-23T23:28:55.916Z,100.00
2022-12-23T23:34:10.258Z,100.00
2022-12-23T23:36:37.203Z,100.00
2022-12-23T23:39:04.234Z,100.00
2022-12-23T23:41:31.288Z,100.00
2022-12-23T23:43:58.050Z,100.00
2022-12-23T23:46:24.830Z,100.00
2022-12-23T23:48:51.659Z,100.00
2022-12-23T23:51:18.536Z,100.00
2022-12-23T23:53:45.224Z,100.00
2022-12-23T23:56:11.890Z,100.00
2022-12-23T23:58:38.659Z,100.00
